createdAt,value
2018-04-15T00:00:20.756Z,27.90
2018-04-15T00:02:48.378Z,27.90
2018-04-15T00:05:15.958Z,27.90
2018-04-15T00:07:43.718Z,27.90
2018-04-15T00:10:11.496Z,27.90
2018-04-15T00:12:39.109Z,27.90
2018-04-15T00:15:06.621Z,27.90
2018-04-15T00:17:34.099Z,27.90
2018-04-15T00:20:01.628Z,28.00
2018-04-15T00:22:29.086Z,27.90
2018-04-15T00:24:56.744Z,28.00
2018-04-15T00:27:24.246Z,27.90
2018-04-15T00:29:51.708Z,27.90
2018-04-15T00:32:19.215Z,28.00
2018-04-15T00:34:46.978Z,28.00
2018-04-15T00:37:14.435Z,27.90
2018-04-15T00:39:42.082Z,27.90
2018-04-15T00:42:09.530Z,28.00
2018-04-15T00:44:36.981Z,28.00
2018-04-15T00:47:04.438Z,28.00
2018-04-15T00:49:31.927Z,27.90
2018-04-15T00:51:59.395Z,27.90
2018-04-15T00:54:27.862Z,27.90
2018-04-15T00:56:55.631Z,27.90
2018-04-15T00:59:23.292Z,27.90
2018-04-15T01:01:50.746Z,27.90
2018-04-15T01:04:19.144Z,27.90
2018-04-15T01:06:46.603Z,27.90
2018-04-15T01:09:14.058Z,27.90
2018-04-15T01:11:41.518Z,27.90
2018-04-15T01:14:09.051Z,27.90
2018-04-15T01:16:36.842Z,27.90
2018-04-15T01:19:04.495Z,27.90
2018-04-15T01:21:32.059Z,27.90
2018-04-15T01:23:59.720Z,27.90
2018-04-15T01:26:27.198Z,27.90
2018-04-15T01:28:54.714Z,27.90
2018-04-15T01:31:22.170Z,27.90
2018-04-15T01:33:49.631Z,27.90
2018-04-15T01:36:17.087Z,27.90
2018-04-15T01:38:44.848Z,27.90
2018-04-15T01:41:12.626Z,27.90
2018-04-15T01:43:40.246Z,27.90
2018-04-15T01:46:07.734Z,27.90
2018-04-15T01:48:35.290Z,27.90
2018-04-15T01:51:03.214Z,27.90
2018-04-15T01:53:30.692Z,27.90
2018-04-15T01:55:58.182Z,27.90
2018-04-15T01:58:25.638Z,27.90
2018-04-15T02:00:53.089Z,27.90
2018-04-15T02:03:20.559Z,27.90
2018-04-15T02:05:48.923Z,27.90
2018-04-15T02:08:17.270Z,27.90
2018-04-15T02:10:44.727Z,27.90
2018-04-15T02:13:12.187Z,27.90
2018-04-15T02:15:39.697Z,27.90
2018-04-15T02:18:07.180Z,27.90
2018-04-15T02:20:34.639Z,27.90
2018-04-15T02:23:02.092Z,27.80
2018-04-15T02:25:29.551Z,27.80
2018-04-15T02:27:57.010Z,27.80
2018-04-15T02:30:24.526Z,27.80
2018-04-15T02:32:51.994Z,27.80
2018-04-15T02:35:19.760Z,27.80
2018-04-15T02:37:47.210Z,27.80
2018-04-15T02:40:14.661Z,27.80
2018-04-15T02:42:42.121Z,27.80
2018-04-15T02:45:09.865Z,27.90
2018-04-15T02:47:37.494Z,27.80
2018-04-15T02:50:04.950Z,27.80
2018-04-15T02:52:32.427Z,27.80
2018-04-15T02:55:00.002Z,27.80
2018-04-15T02:57:27.642Z,27.90
2018-04-15T02:59:55.384Z,27.80
2018-04-15T03:02:22.886Z,27.80
2018-04-15T03:04:50.338Z,27.80
2018-04-15T03:07:17.846Z,27.80
2018-04-15T03:09:45.303Z,27.80
2018-04-15T03:12:12.758Z,27.90
2018-04-15T03:14:40.214Z,27.80
2018-04-15T03:17:07.682Z,27.90
2018-04-15T03:19:35.182Z,27.90
2018-04-15T03:22:02.646Z,27.90
2018-04-15T03:24:30.411Z,27.80
2018-04-15T03:26:57.867Z,27.90
2018-04-15T03:29:25.339Z,27.90
2018-04-15T03:31:52.818Z,27.90
2018-04-15T03:34:20.447Z,27.80
2018-04-15T03:36:48.015Z,27.90
2018-04-15T03:39:15.763Z,27.80
2018-04-15T03:41:43.391Z,27.90
2018-04-15T03:44:10.995Z,28.30
2018-04-15T03:46:38.746Z,27.80
2018-04-15T03:49:06.530Z,27.80
2018-04-15T03:51:34.274Z,27.80
2018-04-15T03:54:01.901Z,27.80
2018-04-15T03:56:29.437Z,27.80
2018-04-15T03:58:56.949Z,27.80
2018-04-15T04:01:24.958Z,27.80
2018-04-15T04:03:52.499Z,27.80
2018-04-15T04:06:20.109Z,27.80
2018-04-15T04:08:47.574Z,27.80
2018-04-15T04:11:15.158Z,27.80
2018-04-15T04:13:42.623Z,27.80
2018-04-15T04:16:10.386Z,27.90
2018-04-15T04:18:49.586Z,27.80
2018-04-15T04:21:28.951Z,27.90
2018-04-15T04:24:08.082Z,27.80
2018-04-15T04:26:35.556Z,27.80
2018-04-15T04:29:03.414Z,27.80
2018-04-15T04:31:30.981Z,27.80
2018-04-15T04:33:58.522Z,27.80
2018-04-15T04:36:25.966Z,27.80
2018-04-15T04:38:53.531Z,27.80
2018-04-15T04:41:21.093Z,27.80
2018-04-15T04:43:48.630Z,27.90
2018-04-15T04:46:16.090Z,27.80
2018-04-15T04:48:43.553Z,27.80
2018-04-15T04:51:11.197Z,27.80
2018-04-15T04:53:38.645Z,27.80
2018-04-15T04:56:06.506Z,27.90
2018-04-15T04:58:33.970Z,27.80
2018-04-15T05:01:01.443Z,27.80
2018-04-15T05:03:28.923Z,27.80
2018-04-15T05:05:57.890Z,27.90
2018-04-15T05:08:25.346Z,27.80
2018-04-15T05:10:52.802Z,27.80
2018-04-15T05:13:20.307Z,27.80
2018-04-15T05:15:47.918Z,27.80
2018-04-15T05:18:15.502Z,27.80
2018-04-15T05:20:42.954Z,27.80
2018-04-15T05:23:10.397Z,27.80
2018-04-15T05:25:37.884Z,27.90
2018-04-15T05:28:05.355Z,27.90
2018-04-15T05:30:32.983Z,27.90
2018-04-15T05:33:00.442Z,27.90
2018-04-15T05:35:28.015Z,27.90
2018-04-15T05:37:55.786Z,27.90
2018-04-15T05:40:23.447Z,27.90
2018-04-15T05:42:51.061Z,27.90
2018-04-15T05:45:18.734Z,27.80
2018-04-15T05:47:46.198Z,27.80
2018-04-15T05:50:13.675Z,27.90
2018-04-15T05:52:41.433Z,27.90
2018-04-15T05:55:08.920Z,27.80
2018-04-15T05:57:36.527Z,27.80
2018-04-15T06:00:03.977Z,27.80
2018-04-15T06:02:31.571Z,27.80
2018-04-15T06:04:59.206Z,27.80
2018-04-15T06:07:26.677Z,27.80
2018-04-15T06:09:54.245Z,27.80
2018-04-15T06:12:22.014Z,27.90
2018-04-15T06:14:49.516Z,27.90
2018-04-15T06:17:17.238Z,27.80
2018-04-15T06:19:44.711Z,27.90
2018-04-15T06:22:12.162Z,27.90
2018-04-15T06:24:39.930Z,27.90
2018-04-15T06:27:07.378Z,27.90
2018-04-15T06:29:34.938Z,27.90
2018-04-15T06:32:02.510Z,27.90
2018-04-15T06:34:29.966Z,27.90
2018-04-15T06:36:57.433Z,27.90
2018-04-15T06:39:24.925Z,27.90
2018-04-15T06:41:52.395Z,27.90
2018-04-15T06:44:19.859Z,27.90
2018-04-15T06:46:47.339Z,27.90
2018-04-15T06:49:14.844Z,27.90
2018-04-15T06:51:42.427Z,27.90
2018-04-15T06:54:09.926Z,27.90
2018-04-15T06:56:37.389Z,27.90
2018-04-15T06:59:04.923Z,27.90
2018-04-15T07:01:32.740Z,27.90
2018-04-15T07:04:00.146Z,27.90
2018-04-15T07:06:27.779Z,28.40
2018-04-15T07:08:55.438Z,27.90
2018-04-15T07:11:23.130Z,27.90
2018-04-15T07:13:50.893Z,27.90
2018-04-15T07:16:18.370Z,28.00
2018-04-15T07:18:46.117Z,27.90
2018-04-15T07:21:13.578Z,28.00
2018-04-15T07:23:41.047Z,27.90
2018-04-15T07:26:08.698Z,27.90
2018-04-15T07:28:36.251Z,28.00
2018-04-15T07:31:03.710Z,27.90
2018-04-15T07:33:31.174Z,28.00
2018-04-15T07:35:58.626Z,27.90
2018-04-15T07:38:26.306Z,27.90
2018-04-15T07:40:53.763Z,27.90
2018-04-15T07:43:21.223Z,28.00
2018-04-15T07:45:49.059Z,28.00
2018-04-15T07:48:16.522Z,28.00
2018-04-15T07:50:44.303Z,28.00
2018-04-15T07:53:11.753Z,28.00
2018-04-15T07:55:39.431Z,28.00
2018-04-15T07:58:07.877Z,28.00
2018-04-15T08:00:35.641Z,28.00
2018-04-15T08:03:03.107Z,28.00
2018-04-15T08:05:30.572Z,28.00
2018-04-15T08:07:58.024Z,28.00
2018-04-15T08:10:25.666Z,27.90
2018-04-15T08:12:53.119Z,27.90
2018-04-15T08:15:20.694Z,28.00
2018-04-15T08:17:48.150Z,27.90
2018-04-15T08:20:15.607Z,28.00
2018-04-15T08:22:43.069Z,28.00
2018-04-15T08:25:10.591Z,28.00
2018-04-15T08:27:38.232Z,28.00
2018-04-15T08:30:05.686Z,27.90
2018-04-15T08:32:33.134Z,28.00
2018-04-15T08:35:00.655Z,28.00
2018-04-15T08:37:28.126Z,28.00
2018-04-15T08:39:55.793Z,28.00
2018-04-15T08:42:23.263Z,28.00
2018-04-15T08:44:50.705Z,28.00
2018-04-15T08:47:18.174Z,28.00
2018-04-15T08:49:45.625Z,28.00
2018-04-15T08:52:13.073Z,28.10
2018-04-15T08:54:41.285Z,28.00
2018-04-15T08:57:08.935Z,28.10
2018-04-15T08:59:36.395Z,28.00
2018-04-15T09:02:03.906Z,28.10
2018-04-15T09:04:32.230Z,28.10
2018-04-15T09:06:59.986Z,28.10
2018-04-15T09:09:27.515Z,28.10
2018-04-15T09:11:55.150Z,28.10
2018-04-15T09:14:22.726Z,28.10
2018-04-15T09:16:50.358Z,28.10
2018-04-15T09:19:17.858Z,28.10
2018-04-15T09:21:45.311Z,28.10
2018-04-15T09:24:13.540Z,28.10
2018-04-15T09:26:41.162Z,28.10
2018-04-15T09:29:08.700Z,28.00
2018-04-15T09:31:36.253Z,28.10
2018-04-15T09:34:03.900Z,28.10
2018-04-15T09:36:31.366Z,28.10
2018-04-15T09:38:59.038Z,28.10
2018-04-15T09:41:26.594Z,28.10
2018-04-15T09:43:54.145Z,28.10
2018-04-15T09:46:21.741Z,28.20
2018-04-15T09:48:49.152Z,28.10
2018-04-15T09:51:16.614Z,28.20
2018-04-15T09:53:44.198Z,28.20
2018-04-15T09:56:11.952Z,28.20
2018-04-15T09:58:39.411Z,28.10
2018-04-15T10:01:06.878Z,28.20
2018-04-15T10:03:34.495Z,28.20
2018-04-15T10:06:02.026Z,28.20
2018-04-15T10:08:29.782Z,28.10
2018-04-15T10:10:57.331Z,28.10
2018-04-15T10:13:24.762Z,28.20
2018-04-15T10:15:52.218Z,28.10
2018-04-15T10:18:19.890Z,28.20
2018-04-15T10:20:47.362Z,28.20
2018-04-15T10:23:15.818Z,28.20
2018-04-15T10:25:43.450Z,28.10
2018-04-15T10:28:11.038Z,28.20
2018-04-15T10:30:38.489Z,28.10
2018-04-15T10:33:05.954Z,28.10
2018-04-15T10:35:33.421Z,28.30
2018-04-15T10:38:01.081Z,28.30
2018-04-15T10:40:29.553Z,28.30
2018-04-15T10:42:57.336Z,28.30
2018-04-15T10:45:24.787Z,28.20
2018-04-15T10:47:52.447Z,28.30
2018-04-15T10:50:19.995Z,28.30
2018-04-15T10:52:47.638Z,28.30
2018-04-15T10:55:15.096Z,28.30
2018-04-15T10:57:42.630Z,28.20
2018-04-15T11:00:10.147Z,28.20
2018-04-15T11:02:37.913Z,28.30
2018-04-15T11:05:05.653Z,28.30
2018-04-15T11:07:33.115Z,28.30
2018-04-15T11:10:00.670Z,28.30
2018-04-15T11:12:28.206Z,28.30
2018-04-15T11:14:55.660Z,28.30
2018-04-15T11:17:23.201Z,28.30
2018-04-15T11:19:50.651Z,28.30
2018-04-15T11:22:18.102Z,28.30
2018-04-15T11:24:45.620Z,28.30
2018-04-15T11:27:13.086Z,28.40
2018-04-15T11:29:40.559Z,28.30
2018-04-15T11:32:08.010Z,28.40
2018-04-15T11:34:35.653Z,28.30
2018-04-15T11:37:03.110Z,28.30
2018-04-15T11:39:30.569Z,28.30
2018-04-15T11:41:58.155Z,28.40
2018-04-15T11:44:25.722Z,28.40
2018-04-15T11:46:53.343Z,28.40
2018-04-15T11:49:20.981Z,28.30
2018-04-15T11:51:48.430Z,28.30
2018-04-15T11:54:15.898Z,28.40
2018-04-15T11:56:43.410Z,28.40
2018-04-15T11:59:10.866Z,28.40
2018-04-15T12:01:38.322Z,28.40
2018-04-15T12:04:05.774Z,28.50
2018-04-15T12:06:33.302Z,28.40
2018-04-15T12:09:00.758Z,28.90
2018-04-15T12:11:28.395Z,28.50
2018-04-15T12:13:55.899Z,28.40
2018-04-15T12:16:23.442Z,28.40
2018-04-15T12:18:50.919Z,28.40
2018-04-15T12:21:18.379Z,28.40
2018-04-15T12:23:46.146Z,28.40
2018-04-15T12:26:13.595Z,28.50
2018-04-15T12:28:41.338Z,28.40
2018-04-15T12:31:09.107Z,28.50
2018-04-15T12:33:36.754Z,28.50
2018-04-15T12:36:04.990Z,28.50
2018-04-15T12:38:32.437Z,28.50
2018-04-15T12:40:59.912Z,28.90
2018-04-15T12:43:27.378Z,28.50
2018-04-15T12:45:55.074Z,28.50
2018-04-15T12:48:22.845Z,28.60
2018-04-15T12:50:50.469Z,29.00
2018-04-15T12:53:17.975Z,28.60
2018-04-15T12:55:45.526Z,28.50
2018-04-15T12:58:12.987Z,28.60
2018-04-15T13:00:40.438Z,28.60
2018-04-15T13:03:08.067Z,28.50
2018-04-15T13:05:35.527Z,28.50
2018-04-15T13:08:03.054Z,28.60
2018-04-15T13:10:30.510Z,28.50
2018-04-15T13:12:57.962Z,28.50
2018-04-15T13:15:25.419Z,28.50
2018-04-15T13:17:52.875Z,28.60
2018-04-15T13:20:20.341Z,28.60
2018-04-15T13:22:47.854Z,28.60
2018-04-15T13:25:15.323Z,28.60
2018-04-15T13:27:42.774Z,28.60
2018-04-15T13:30:10.237Z,28.60
2018-04-15T13:32:37.982Z,28.60
2018-04-15T13:35:05.439Z,28.60
2018-04-15T13:37:32.900Z,28.60
2018-04-15T13:40:00.355Z,28.60
2018-04-15T13:42:28.121Z,28.60
2018-04-15T13:44:55.588Z,28.60
2018-04-15T13:47:23.039Z,28.60
2018-04-15T13:49:50.822Z,28.60
2018-04-15T13:52:18.557Z,28.60
2018-04-15T13:54:46.010Z,28.60
2018-04-15T13:57:13.498Z,28.60
2018-04-15T13:59:41.153Z,28.60
2018-04-15T14:02:08.703Z,28.60
2018-04-15T14:04:36.159Z,28.60
2018-04-15T14:07:03.818Z,28.60
2018-04-15T14:09:32.154Z,29.10
2018-04-15T14:11:59.775Z,28.60
2018-04-15T14:14:27.387Z,28.60
2018-04-15T14:16:54.871Z,29.10
2018-04-15T14:19:22.342Z,28.60
2018-04-15T14:21:49.820Z,28.60
2018-04-15T14:24:17.261Z,28.60
2018-04-15T14:26:44.819Z,28.60
2018-04-15T14:29:12.439Z,28.60
2018-04-15T14:31:40.232Z,28.60
2018-04-15T14:34:08.459Z,28.60
2018-04-15T14:36:36.162Z,28.60
2018-04-15T14:39:03.618Z,28.60
2018-04-15T14:41:31.074Z,28.60
2018-04-15T14:43:58.557Z,28.60
2018-04-15T14:46:26.044Z,28.60
2018-04-15T14:48:53.752Z,28.60
2018-04-15T14:51:21.214Z,28.60
2018-04-15T14:53:48.754Z,28.60
2018-04-15T14:56:16.363Z,28.60
2018-04-15T14:58:43.835Z,28.60
2018-04-15T15:01:11.286Z,28.60
2018-04-15T15:03:38.734Z,28.60
2018-04-15T15:06:06.253Z,28.60
2018-04-15T15:08:33.710Z,28.60
2018-04-15T15:11:01.362Z,28.60
2018-04-15T15:13:28.881Z,28.60
2018-04-15T15:15:56.551Z,28.60
2018-04-15T15:18:24.214Z,28.60
2018-04-15T15:20:51.790Z,28.60
2018-04-15T15:23:19.398Z,28.60
2018-04-15T15:25:46.854Z,28.60
2018-04-15T15:28:14.591Z,28.60
2018-04-15T15:30:41.990Z,28.60
2018-04-15T15:33:09.492Z,28.60
2018-04-15T15:35:36.921Z,28.60
2018-04-15T15:38:04.426Z,28.60
2018-04-15T15:40:31.882Z,28.60
2018-04-15T15:42:59.638Z,28.60
2018-04-15T15:45:27.095Z,28.60
2018-04-15T15:47:54.557Z,28.60
2018-04-15T15:50:22.016Z,28.60
2018-04-15T15:52:49.462Z,28.70
2018-04-15T15:55:17.101Z,28.70
2018-04-15T15:57:44.694Z,28.70
2018-04-15T16:00:12.167Z,28.70
2018-04-15T16:02:39.614Z,28.70
2018-04-15T16:05:07.233Z,28.70
2018-04-15T16:07:34.825Z,28.70
2018-04-15T16:10:02.752Z,28.70
2018-04-15T16:12:30.411Z,28.70
2018-04-15T16:14:58.138Z,28.70
2018-04-15T16:17:25.599Z,28.70
2018-04-15T16:19:53.054Z,28.70
2018-04-15T16:22:20.523Z,28.70
2018-04-15T16:24:47.974Z,28.70
2018-04-15T16:27:15.430Z,28.70
2018-04-15T16:29:42.883Z,28.70
2018-04-15T16:32:10.623Z,28.80
2018-04-15T16:34:38.282Z,28.70
2018-04-15T16:37:05.778Z,28.80
2018-04-15T16:39:33.314Z,28.80
2018-04-15T16:42:01.077Z,28.80
2018-04-15T16:44:28.530Z,28.80
2018-04-15T16:46:56.003Z,28.80
2018-04-15T16:49:23.651Z,28.80
2018-04-15T16:51:51.105Z,28.80
2018-04-15T16:54:18.567Z,28.80
2018-04-15T16:56:46.970Z,28.80
2018-04-15T16:59:14.500Z,28.80
2018-04-15T17:01:42.278Z,28.80
2018-04-15T17:04:10.028Z,28.80
2018-04-15T17:06:37.473Z,28.80
2018-04-15T17:09:04.930Z,28.80
2018-04-15T17:11:32.411Z,28.80
2018-04-15T17:13:59.868Z,28.80
2018-04-15T17:16:27.335Z,28.80
2018-04-15T17:18:54.970Z,28.80
2018-04-15T17:21:23.465Z,28.80
2018-04-15T17:23:50.926Z,28.80
2018-04-15T17:26:18.569Z,28.90
2018-04-15T17:28:46.079Z,28.80
2018-04-15T17:31:13.529Z,28.90
2018-04-15T17:33:40.981Z,28.90
2018-04-15T17:36:08.444Z,28.90
2018-04-15T17:38:35.895Z,28.90
2018-04-15T17:41:03.410Z,28.90
2018-04-15T17:43:31.185Z,28.90
2018-04-15T17:45:58.679Z,28.90
2018-04-15T17:48:26.123Z,28.90
2018-04-15T17:50:53.763Z,28.90
2018-04-15T17:53:22.131Z,28.90
2018-04-15T17:55:50.606Z,28.90
2018-04-15T17:58:18.073Z,28.90
2018-04-15T18:00:45.744Z,29.00
2018-04-15T18:03:13.962Z,28.90
2018-04-15T18:05:41.418Z,28.90
2018-04-15T18:08:09.123Z,28.90
2018-04-15T18:10:36.890Z,29.00
2018-04-15T18:13:04.530Z,29.00
2018-04-15T18:15:32.023Z,28.90
2018-04-15T18:18:00.385Z,29.00
2018-04-15T18:20:27.948Z,29.00
2018-04-15T18:22:55.410Z,29.00
2018-04-15T18:25:22.874Z,29.00
2018-04-15T18:27:50.471Z,29.00
2018-04-15T18:30:17.918Z,29.00
2018-04-15T18:32:45.374Z,29.10
2018-04-15T18:35:12.990Z,29.00
2018-04-15T18:37:40.459Z,29.00
2018-04-15T18:40:08.230Z,29.00
2018-04-15T18:42:35.979Z,29.00
2018-04-15T18:45:03.426Z,29.00
2018-04-15T18:47:30.881Z,29.00
2018-04-15T18:49:58.388Z,29.00
2018-04-15T18:52:25.825Z,29.00
2018-04-15T18:54:53.438Z,29.00
2018-04-15T18:57:20.973Z,29.00
2018-04-15T18:59:48.494Z,29.00
2018-04-15T19:02:16.149Z,29.10
2018-04-15T19:04:43.717Z,29.10
2018-04-15T19:07:11.186Z,29.10
2018-04-15T19:09:38.822Z,29.10
2018-04-15T19:12:06.282Z,29.10
2018-04-15T19:14:33.759Z,29.10
2018-04-15T19:17:01.739Z,29.10
2018-04-15T19:19:29.958Z,29.10
2018-04-15T19:21:57.419Z,29.10
2018-04-15T19:24:24.874Z,29.00
2018-04-15T19:26:52.350Z,29.10
2018-04-15T19:29:19.974Z,29.00
2018-04-15T19:31:47.433Z,29.00
2018-04-15T19:34:15.029Z,29.00
2018-04-15T19:36:42.528Z,29.10
2018-04-15T19:39:10.135Z,29.00
2018-04-15T19:41:39.446Z,29.00
2018-04-15T19:44:06.902Z,29.00
2018-04-15T19:46:34.467Z,29.00
2018-04-15T19:49:02.231Z,29.00
2018-04-15T19:51:29.702Z,29.10
2018-04-15T19:53:57.314Z,29.00
2018-04-15T19:56:24.903Z,29.00
2018-04-15T19:58:52.363Z,29.00
2018-04-15T20:01:19.994Z,29.00
2018-04-15T20:03:47.515Z,29.00
2018-04-15T20:06:14.966Z,29.00
2018-04-15T20:08:42.429Z,29.00
2018-04-15T20:11:09.896Z,29.00
2018-04-15T20:13:37.368Z,29.00
2018-04-15T20:16:04.835Z,28.90
2018-04-15T20:18:32.871Z,28.90
2018-04-15T20:21:00.321Z,28.90
2018-04-15T20:23:27.792Z,28.90
2018-04-15T20:25:55.242Z,28.90
2018-04-15T20:28:22.771Z,28.90
2018-04-15T20:30:50.233Z,28.90
2018-04-15T20:33:17.682Z,28.90
2018-04-15T20:35:45.342Z,28.90
2018-04-15T20:38:12.851Z,28.90
2018-04-15T20:40:40.310Z,28.90
2018-04-15T20:43:07.809Z,28.90
2018-04-15T20:45:35.446Z,28.90
2018-04-15T20:48:03.038Z,28.80
2018-04-15T20:50:30.494Z,28.80
2018-04-15T20:52:57.946Z,28.80
2018-04-15T20:58:07.229Z,28.80
2018-04-15T21:00:34.696Z,28.80
2018-04-15T21:03:02.138Z,28.80
2018-04-15T21:05:29.675Z,28.80
2018-04-15T21:07:57.431Z,28.80
2018-04-15T21:10:24.881Z,28.80
2018-04-15T21:12:52.362Z,28.80
2018-04-15T21:15:20.111Z,28.80
2018-04-15T21:17:47.811Z,28.70
2018-04-15T21:20:15.262Z,28.70
2018-04-15T21:22:42.710Z,28.70
2018-04-15T21:25:10.570Z,28.70
2018-04-15T21:27:38.177Z,28.70
2018-04-15T21:30:05.630Z,28.70
2018-04-15T21:32:33.096Z,28.70
2018-04-15T21:35:00.587Z,28.60
2018-04-15T21:37:28.055Z,28.60
2018-04-15T21:39:56.418Z,28.60
2018-04-15T21:42:23.866Z,28.60
2018-04-15T21:44:51.454Z,28.60
2018-04-15T21:47:19.098Z,28.50
2018-04-15T21:49:46.568Z,28.50
2018-04-15T21:52:14.906Z,28.50
2018-04-15T21:54:42.511Z,28.50
2018-04-15T21:57:10.119Z,28.50
2018-04-15T21:59:37.611Z,28.50
2018-04-15T22:02:05.286Z,28.40
2018-04-15T22:04:32.740Z,28.40
2018-04-15T22:07:00.318Z,29.00
2018-04-15T22:09:27.780Z,28.90
2018-04-15T22:12:07.120Z,28.40
2018-04-15T22:14:34.753Z,28.40
2018-04-15T22:17:02.199Z,28.40
2018-04-15T22:19:29.655Z,28.30
2018-04-15T22:21:57.109Z,28.30
2018-04-15T22:24:24.614Z,28.30
2018-04-15T22:26:52.443Z,28.30
2018-04-15T22:29:19.998Z,28.30
2018-04-15T22:31:48.470Z,28.30
2018-04-15T22:34:15.926Z,28.30
2018-04-15T22:36:43.566Z,28.30
2018-04-15T22:39:11.076Z,28.30
2018-04-15T22:41:38.526Z,28.30
2018-04-15T22:44:05.980Z,28.30
2018-04-15T22:46:33.434Z,28.30
2018-04-15T22:49:00.886Z,28.30
2018-04-15T22:51:28.354Z,28.30
2018-04-15T22:53:55.814Z,28.30
2018-04-15T22:56:23.265Z,28.30
2018-04-15T22:58:50.718Z,28.30
2018-04-15T23:01:19.187Z,28.30
2018-04-15T23:03:46.834Z,28.30
2018-04-15T23:06:14.291Z,28.30
2018-04-15T23:08:41.746Z,28.30
2018-04-15T23:11:09.226Z,28.30
2018-04-15T23:13:36.691Z,28.30
2018-04-15T23:16:04.543Z,28.30
2018-04-15T23:18:31.998Z,28.30
2018-04-15T23:20:59.718Z,28.30
2018-04-15T23:23:27.166Z,28.30
2018-04-15T23:25:54.623Z,28.30
2018-04-15T23:28:22.449Z,28.30
2018-04-15T23:30:49.901Z,28.30
2018-04-15T23:33:17.358Z,28.30
2018-04-15T23:35:44.806Z,28.20
2018-04-15T23:38:12.292Z,28.20
2018-04-15T23:40:39.898Z,28.20
2018-04-15T23:43:07.662Z,28.20
2018-04-15T23:45:35.114Z,28.20
2018-04-15T23:48:02.623Z,28.20
2018-04-15T23:50:30.161Z,28.20
2018-04-15T23:52:57.931Z,28.20
2018-04-15T23:55:25.440Z,28.20
2018-04-15T23:57:52.900Z,28.20
